地図

経路データ

SID SEASON NUMBER BASIN SUBBASIN NAME ISO_TIME NATURE LAT LON WMO_WIND WMO_PRES WMO_AGENCY TRACK_TYPE DIST2LAND LANDFALL IFLAG USA_AGENCY USA_ATCF_ID USA_LAT USA_LON USA_RECORD USA_STATUS USA_WIND USA_PRES USA_SSHS USA_R34_NE USA_R34_SE USA_R34_SW USA_R34_NW USA_R50_NE USA_R50_SE USA_R50_SW USA_R50_NW USA_R64_NE USA_R64_SE USA_R64_SW USA_R64_NW USA_POCI USA_ROCI USA_RMW USA_EYE TOKYO_LAT TOKYO_LON TOKYO_GRADE TOKYO_WIND TOKYO_PRES TOKYO_R50_DIR TOKYO_R50_LONG TOKYO_R50_SHORT TOKYO_R30_DIR TOKYO_R30_LONG TOKYO_R30_SHORT TOKYO_LAND CMA_LAT CMA_LON CMA_CAT CMA_WIND CMA_PRES HKO_LAT HKO_LON HKO_CAT HKO_WIND HKO_PRES NEWDELHI_LAT NEWDELHI_LON NEWDELHI_GRADE NEWDELHI_WIND NEWDELHI_PRES NEWDELHI_CI NEWDELHI_DP NEWDELHI_POCI REUNION_LAT REUNION_LON REUNION_TYPE REUNION_WIND REUNION_PRES REUNION_TNUM REUNION_CI REUNION_RMW REUNION_R34_NE REUNION_R34_SE REUNION_R34_SW REUNION_R34_NW REUNION_R50_NE REUNION_R50_SE REUNION_R50_SW REUNION_R50_NW REUNION_R64_NE REUNION_R64_SE REUNION_R64_SW REUNION_R64_NW BOM_LAT BOM_LON BOM_TYPE BOM_WIND BOM_PRES BOM_TNUM BOM_CI BOM_RMW BOM_R34_NE BOM_R34_SE BOM_R34_SW BOM_R34_NW BOM_R50_NE BOM_R50_SE BOM_R50_SW BOM_R50_NW BOM_R64_NE BOM_R64_SE BOM_R64_SW BOM_R64_NW BOM_ROCI BOM_POCI BOM_EYE BOM_POS_METHOD BOM_PRES_METHOD NADI_LAT NADI_LON NADI_CAT NADI_WIND NADI_PRES WELLINGTON_LAT WELLINGTON_LON WELLINGTON_WIND WELLINGTON_PRES DS824_LAT DS824_LON DS824_STAGE DS824_WIND DS824_PRES TD9636_LAT TD9636_LON TD9636_STAGE TD9636_WIND TD9636_PRES TD9635_LAT TD9635_LON TD9635_WIND TD9635_PRES TD9635_ROCI NEUMANN_LAT NEUMANN_LON NEUMANN_CLASS NEUMANN_WIND NEUMANN_PRES MLC_LAT MLC_LON MLC_CLASS MLC_WIND MLC_PRES USA_GUST BOM_GUST BOM_GUST_PER REUNION_GUST REUNION_GUST_PER USA_SEAHGT USA_SEARAD_NE USA_SEARAD_SE USA_SEARAD_SW USA_SEARAD_NW STORM_SPEED STORM_DIR
1986264N12221 1986 97 EP MM ORLENE 1986-09-21 00:00:00 TS 12.0000 -138.700 25 hurdat_epa main 1915 1895 O_________O___ hurdat_epa EP151986 12.0000 -138.700 TD 25 -1 12.0000 -138.700 1 25 4 335
1986264N12221 1986 97 EP MM ORLENE 1986-09-21 03:00:00 TS 12.2001 -138.792 main 1895 1875 P_________P___ EP151986 12.1850 -138.790 TD 27 -1 12.2453 -138.798 1 27 5 335
1986264N12221 1986 97 EP MM ORLENE 1986-09-21 06:00:00 TS 12.4206 -138.902 30 hurdat_epa main 1875 1850 O_________P___ hurdat_epa EP151986 12.4000 -138.900 TD 30 -1 12.4824 -138.907 1 30 5 333
1986264N12221 1986 97 EP MM ORLENE 1986-09-21 09:00:00 TS 12.6690 -139.041 main 1850 1821 P_________P___ EP151986 12.6575 -139.042 TD 32 -1 12.7034 -139.038 1 32 6 329
1986264N12221 1986 97 EP MM ORLENE 1986-09-21 12:00:00 TS 12.9000 -139.200 35 hurdat_epa main 1821 1801 O_________O___ hurdat_epa EP151986 12.9000 -139.200 TS 35 0 12.9000 -139.200 2 35 5 322
1986264N12221 1986 97 EP MM ORLENE 1986-09-21 15:00:00 TS 13.0604 -139.351 main 1791 1777 P_________P___ EP151986 13.0575 -139.335 TS 35 0 13.0692 -139.399 2 42 4 314
1986264N12221 1986 97 EP MM ORLENE 1986-09-21 18:00:00 TS 13.2069 -139.529 35 hurdat_epa main 1777 1738 O_________P___ hurdat_epa EP151986 13.2000 -139.500 TS 35 0 13.2277 -139.615 2 50 5 309
1986264N12221 1986 97 EP MM ORLENE 1986-09-21 21:00:00 TS 13.3825 -139.768 main 1738 1709 P_________P___ EP151986 13.3776 -139.750 TS 50 0 13.3973 -139.824 2 57 6 311
1986264N12221 1986 97 EP CP ORLENE 1986-09-22 00:00:00 TS 13.6000 -140.000 65 hurdat_epa main 1709 1675 O_________O___ hurdat_epa EP151986 13.6000 -140.000 HU 65 1 13.6000 -140.000 3 65 6 322
1986264N12221 1986 97 EP CP ORLENE 1986-09-22 03:00:00 TS 13.8797 -140.167 main 1675 1652 P_________P___ EP151986 13.8850 -140.187 HU 65 1 13.8640 -140.107 3 66 6 337
1986264N12221 1986 97 EP CP ORLENE 1986-09-22 06:00:00 TS 14.1794 -140.254 65 hurdat_epa main 1652 1639 O_________P___ hurdat_epa EP151986 14.2000 -140.300 HU 65 1 14.1624 -140.180 3 67 6 351
1986264N12221 1986 97 EP CP ORLENE 1986-09-22 09:00:00 TS 14.4785 -140.268 main 1639 1627 P_________P___ EP151986 14.5000 -140.315 HU 67 1 14.4796 -140.238 3 68 6 358
1986264N12221 1986 97 EP CP ORLENE 1986-09-22 12:00:00 TS 14.7842 -140.268 70 hurdat_epa main 1627 1615 O_________O___ hurdat_epa EP151986 14.8000 -140.300 HU 70 1 14.8000 -140.300 4 70 6 357
1986264N12221 1986 97 EP CP ORLENE 1986-09-22 15:00:00 TS 15.0955 -140.311 main 1615 1594 P_________P___ EP151986 15.1000 -140.328 HU 70 1 15.1203 -140.389 4 70 6 349
1986264N12221 1986 97 EP CP ORLENE 1986-09-22 18:00:00 TS 15.4075 -140.397 70 hurdat_epa main 1594 1573 O_________P___ hurdat_epa EP151986 15.4000 -140.400 HU 70 1 15.4375 -140.485 4 70 7 341
1986264N12221 1986 97 EP CP ORLENE 1986-09-22 21:00:00 TS 15.7222 -140.533 main 1573 1543 P_________P___ EP151986 15.7150 -140.542 HU 70 1 15.7359 -140.589 4 70 7 335
1986264N12221 1986 97 EP CP ORLENE 1986-09-23 00:00:00 TS 16.0000 -140.680 70 hurdat_epa main 1543 1526 O_________O___ hurdat_epa EP151986 16.0000 -140.700 HU 70 1 16.0000 -140.700 4 70 5 335
1986264N12221 1986 97 EP CP ORLENE 1986-09-23 03:00:00 TS 16.2149 -140.777 main 1526 1510 P_________P___ EP151986 16.2225 -140.800 HU 70 1 16.2270 -140.794 4 68 4 334
1986264N12221 1986 97 EP CP ORLENE 1986-09-23 06:00:00 TS 16.3834 -140.880 70 hurdat_epa main 1510 1497 O_________P___ hurdat_epa EP151986 16.4000 -140.900 HU 70 1 16.4172 -140.898 4 67 4 324
1986264N12221 1986 97 EP CP ORLENE 1986-09-23 09:00:00 TS 16.5352 -141.015 main 1497 1470 P_________P___ EP151986 16.5649 -141.020 HU 67 1 16.5739 -141.028 4 66 4 312
1986264N12221 1986 97 EP CP ORLENE 1986-09-23 12:00:00 TS 16.6600 -141.200 65 hurdat_epa main 1470 1447 O_________O___ hurdat_epa EP151986 16.7000 -141.200 HU 65 1 16.7000 -141.200 4 65 5 299
1986264N12221 1986 97 EP CP ORLENE 1986-09-23 15:00:00 TS 16.7722 -141.456 main 1437 1413 P_________P___ EP151986 16.8151 -141.485 HU 62 0 16.8160 -141.424 4 61 6 291
1986264N12221 1986 97 EP CP ORLENE 1986-09-23 18:00:00 TS 16.8605 -141.738 60 hurdat_epa main 1413 1382 O_________P___ hurdat_epa EP151986 16.9000 -141.800 TS 60 0 16.9025 -141.690 4 57 5 288
1986264N12221 1986 97 EP CP ORLENE 1986-09-23 21:00:00 TS 16.9330 -141.984 main 1382 1359 P_________P___ EP151986 16.9649 -142.050 TS 55 0 16.9628 -141.986 4 53 5 284
1986264N12221 1986 97 EP CP ORLENE 1986-09-24 00:00:00 TS 16.9800 -142.240 50 hurdat_epa main 1359 1328 O_________O___ hurdat_epa EP151986 17.0000 -142.300 TS 50 0 17.0000 -142.300 2 50 5 278
1986264N12221 1986 97 EP CP ORLENE 1986-09-24 03:00:00 TS 17.0034 -142.528 main 1328 1297 P_________P___ EP151986 17.0075 -142.585 TS 47 0 17.0296 -142.607 2 46 6 273
1986264N12221 1986 97 EP CP ORLENE 1986-09-24 06:00:00 TS 17.0075 -142.846 45 hurdat_epa main 1297 1256 O_________P___ hurdat_epa EP151986 17.0000 -142.900 TS 45 0 17.0374 -142.928 2 42 6 271
1986264N12221 1986 97 EP CP ORLENE 1986-09-24 09:00:00 TS 17.0128 -143.184 main 1256 1225 P_________P___ EP151986 17.0075 -143.242 TS 40 0 17.0264 -143.260 2 38 7 269
1986264N12221 1986 97 EP CP ORLENE 1986-09-24 12:00:00 TS 17.0000 -143.540 35 hurdat_epa main 1225 1184 O_________O___ hurdat_epa EP151986 17.0000 -143.600 TS 35 0 17.0000 -143.600 2 35 7 265
1986264N12221 1986 97 EP CP ORLENE 1986-09-24 15:00:00 TS 16.9582 -143.896 main 1184 1156 P_________P___ EP151986 16.9574 -143.950 TS 32 -1 16.9612 -143.946 2 32 7 262
1986264N12221 1986 97 EP CP ORLENE 1986-09-24 18:00:00 TS 16.9026 -144.259 30 hurdat_epa main 1146 1115 O_________P___ hurdat_epa EP151986 16.9000 -144.300 TD 30 -1 16.9130 -144.295 2 30 7 261
1986264N12221 1986 97 EP CP ORLENE 1986-09-24 21:00:00 TS 16.8498 -144.628 main 1119 1078 P_________P___ EP151986 16.8476 -144.650 TD 27 -1 16.8583 -144.647 2 27 7 262
1986264N12221 1986 97 EP CP ORLENE 1986-09-25 00:00:00 TS 16.8000 -145.000 25 hurdat_epa main 1078 O_________O___ hurdat_epa EP151986 16.8000 -145.000 TD 25 -1 16.8000 -145.000 1 25 7 262

IBTrACS Databaseについて

本データベースは、米国NOAAが公開する1842年以降の世界の熱帯低気圧のベストトラックデータアーカイブInternational Best Track Archive for Climate Stewardship (IBTrACS)を、ウェブで閲覧しやすい形式に変換したものです。

最終更新日:2021-11-26